createdAt,value
2024-01-09T00:08:17.668Z,-6.23
2024-01-09T00:18:21.872Z,-6.18
2024-01-09T00:28:24.689Z,-6.29
2024-01-09T00:38:28.909Z,-6.31
2024-01-09T00:48:31.896Z,-6.26
2024-01-09T00:58:36.188Z,-6.30
2024-01-09T01:08:39.452Z,-6.40
2024-01-09T01:18:44.069Z,-6.36
2024-01-09T01:28:47.441Z,-6.42
2024-01-09T01:38:51.728Z,-6.45
2024-01-09T01:48:54.590Z,-6.45
2024-01-09T01:58:58.826Z,-6.53
2024-01-09T02:09:01.549Z,-6.55
2024-01-09T02:19:06.289Z,-6.60
2024-01-09T02:29:11.235Z,-6.57
2024-01-09T02:39:15.397Z,-6.69
2024-01-09T02:49:18.716Z,-6.72
2024-01-09T02:59:25.198Z,-6.74
2024-01-09T03:09:28.325Z,-6.64
2024-01-09T03:19:33.362Z,-6.83
2024-01-09T03:29:36.172Z,-6.82
2024-01-09T03:39:40.501Z,-6.86
2024-01-09T03:49:43.252Z,-6.94
2024-01-09T03:59:47.423Z,-6.95
2024-01-09T04:09:50.210Z,-7.03
2024-01-09T04:19:54.257Z,-7.03
2024-01-09T04:29:57.059Z,-7.07
2024-01-09T04:40:01.445Z,-7.07
2024-01-09T04:50:04.469Z,-7.12
2024-01-09T05:00:10.496Z,-7.12
2024-01-09T05:10:13.390Z,-7.09
2024-01-09T05:20:18.048Z,-7.13
2024-01-09T05:30:20.846Z,-7.13
2024-01-09T05:40:24.886Z,-7.19
2024-01-09T05:50:27.654Z,-7.16
2024-01-09T06:00:31.765Z,-7.20
2024-01-09T06:10:35.857Z,-7.22
2024-01-09T06:20:40.094Z,-7.18
2024-01-09T06:30:43.003Z,-7.22
2024-01-09T06:40:47.397Z,-7.23
2024-01-09T06:50:50.173Z,-7.26
2024-01-09T07:00:54.605Z,-7.29
2024-01-09T07:10:58.457Z,-7.29
2024-01-09T07:21:03.209Z,-7.23
2024-01-09T07:31:06.442Z,-7.23
2024-01-09T07:41:11.403Z,-7.17
2024-01-09T07:51:14.172Z,-7.05
2024-01-09T08:01:20.355Z,-6.86
2024-01-09T08:11:23.772Z,-6.42
2024-01-09T08:21:28.106Z,-5.96
2024-01-09T08:31:30.843Z,-5.22
2024-01-09T08:41:34.956Z,-4.49
2024-01-09T08:51:37.709Z,-3.74
2024-01-09T09:01:42.093Z,-2.83
2024-01-09T09:11:45.231Z,-1.98
2024-01-09T09:21:49.782Z,-1.01
2024-01-09T09:31:57.718Z,-0.41
2024-01-09T09:42:02.052Z,0.57
2024-01-09T09:52:05.856Z,1.45
2024-01-09T10:02:14.739Z,1.99
2024-01-09T10:12:20.062Z,2.29
2024-01-09T10:22:25.158Z,3.39
2024-01-09T10:32:28.144Z,3.39
2024-01-09T10:42:33.086Z,3.49
2024-01-09T10:52:36.243Z,3.83
2024-01-09T11:02:40.675Z,3.74
2024-01-09T11:12:44.911Z,4.11
2024-01-09T11:22:49.741Z,4.56
2024-01-09T11:32:52.856Z,4.48
2024-01-09T11:43:00.383Z,4.69
2024-01-09T11:53:03.280Z,5.02
2024-01-09T12:03:07.668Z,5.24
2024-01-09T12:13:10.449Z,5.34
2024-01-09T12:23:17.211Z,5.53
2024-01-09T12:33:22.623Z,5.31
2024-01-09T12:43:27.201Z,5.68
2024-01-09T12:53:32.588Z,5.57
2024-01-09T13:03:37.222Z,5.27
2024-01-09T13:13:40.801Z,5.32
2024-01-09T13:23:50.152Z,5.11
2024-01-09T13:33:54.967Z,4.89
2024-01-09T13:43:59.548Z,4.31
2024-01-09T13:54:03.681Z,4.14
2024-01-09T14:04:13.028Z,3.99
2024-01-09T14:14:16.830Z,3.66
2024-01-09T14:24:20.742Z,3.11
2024-01-09T14:34:23.548Z,1.53
2024-01-09T14:44:27.653Z,0.33
2024-01-09T14:54:30.402Z,-0.47
2024-01-09T15:04:34.504Z,-0.87
2024-01-09T15:14:37.755Z,-1.13
2024-01-09T15:24:42.049Z,-1.22
2024-01-09T15:34:45.172Z,-1.38
2024-01-09T15:44:50.518Z,-1.51
2024-01-09T15:54:53.896Z,-1.80
2024-01-09T16:04:58.432Z,-1.95
2024-01-09T16:15:00.976Z,-2.05
2024-01-09T16:25:09.783Z,-2.14
2024-01-09T16:35:12.917Z,-2.23
2024-01-09T16:45:17.418Z,-2.33
2024-01-09T16:55:20.279Z,-2.41
2024-01-09T17:05:24.513Z,-2.48
2024-01-09T17:15:27.796Z,-2.55
2024-01-09T17:25:32.018Z,-2.64
2024-01-09T17:35:34.841Z,-2.71
2024-01-09T17:45:40.162Z,-2.82
2024-01-09T17:55:43.390Z,-2.96
2024-01-09T18:05:50.216Z,-3.28
2024-01-09T18:15:53.931Z,-3.17
2024-01-09T18:25:58.193Z,-3.33
2024-01-09T18:36:02.666Z,-3.32
2024-01-09T18:46:06.916Z,-3.57
2024-01-09T18:56:09.961Z,-3.71
2024-01-09T19:06:15.552Z,-3.86
2024-01-09T19:16:18.540Z,-3.90
2024-01-09T19:26:32.792Z,-3.96
2024-01-09T19:36:35.556Z,-4.20
2024-01-09T19:46:42.491Z,-4.07
2024-01-09T19:56:45.486Z,-4.12
2024-01-09T20:06:49.753Z,-4.15
2024-01-09T20:16:52.623Z,-4.19
2024-01-09T20:26:59.632Z,-4.30
2024-01-09T20:37:03.075Z,-4.48
2024-01-09T20:47:07.696Z,-4.51
2024-01-09T20:57:10.497Z,-4.65
2024-01-09T21:07:15.070Z,-4.62
2024-01-09T21:17:17.985Z,-4.68
2024-01-09T21:27:22.264Z,-4.68
2024-01-09T21:37:26.098Z,-4.73
2024-01-09T21:47:30.294Z,-4.82
2024-01-09T21:57:33.331Z,-4.94
2024-01-09T22:07:37.382Z,-4.89
2024-01-09T22:17:41.784Z,-4.94
2024-01-09T22:27:46.237Z,-5.04
2024-01-09T22:37:49.029Z,-5.09
2024-01-09T22:47:53.316Z,-5.14
2024-01-09T22:57:56.337Z,-5.20
2024-01-09T23:08:00.692Z,-5.35
2024-01-09T23:18:03.564Z,-5.31
2024-01-09T23:28:08.290Z,-5.42
2024-01-09T23:38:11.311Z,-5.48
2024-01-09T23:48:15.896Z,-5.71
2024-01-09T23:58:18.606Z,-5.58
